Avoca, IA (51521)

02:32 CST le 21 janvier 2017 (GMT -0600)
Shelby, IA | | Change Station
Avis météorologiques actifs: Dense Fog Advisory

Alt. 1329 ft 41.53 °N, 95.46 °W | Updated 10 seconds ago

Couvert
Couvert
39.3 ° F
Paraît 39 ° F
N
0.0
Vent Variable Vent de Nord
Gusts 1.0 mph

Aujourd'hui
Haut(e) -- | Bas -- ° F
--% Risque de précip.
Hier
Haut(e) -- | Bas -- ° F
Precip. -- pouce
Pression 29.42 pouce
Visibilité 0.2 Miles terrestres
Nuages Couvert 200 ft
Refroidissement éolien 39 ° F
Point de rosée 30 ° F
Humidité 69%
Précipitations 0.05 pouce
Profondeur de la couche neigeuse Non disponible.
7:41 AM 5:24 PM
Dernier quartier, 37% visible
METAR KHNR 210815Z AUTO 00000KT 1/4SM -UP OVC002 04/04 A2942 RMK AO2
Pression 29.42 pouce
Visibilité 0.2 Miles terrestres
Nuages Couvert 200 ft
Refroidissement éolien 39 ° F
Point de rosée 30 ° F
Humidité 69%
Précipitations 0.05 pouce
Profondeur de la couche neigeuse Non disponible.
7:41 AM 5:24 PM
Dernier quartier, 37% visible
METAR KHNR 210815Z AUTO 00000KT 1/4SM -UP OVC002 04/04 A2942 RMK AO2

Get Your Daily Forecast Email!

Thanks for signing up!

Be on the lookout for a verification email in your inbox.

You'll start receiving the daily forecast at 8 AM.

×

10-Day Weather Forecast

Almanac

Astronomie

Jan. 21, 2017 Lever Coucher
Temps réel
Crépuscule civil
Crépuscule nautique
Crépuscule astronomique
Lune
Durée de lumière visible
Longueur du jour
Tomorrow will be .
, % of the Moon is Illuminated

Extrêmes aujourd'hui

State Highs State Lows

Community

WunderPhotos

Upload Photos

1,962,540 Photos téléchargées !

WunderBlog® & News

Nearby

Qualité de l'air

  Qualité de l'air Indice de la qualité de l'air Polluant
Not available.

Épaisseur de neige

Station Depth Altitude

Activité sismique

Ville Distance Mag. Time & Date
Minimum magnitude displayed is 2.5.

Températures des eaux côtières

Lieu Température

Stations

Stations météo à proximité

Emplacement de la station Température Refroidissement éolien Point de rosée Humidité Vent Precip. Alt. Mise à jour Type
                   

Watches & Warnings

Dense Fog Advisory
Issued: 23:16 CST Jan. 20, 2017 – National Weather Service

... Dense fog advisory remains in effect until 9 am CST Saturday...

* visibility... visibilities are expected to drop to a quarter
mile or less at most locations overnight. Some improvement in
the visibility will occur as scattered showers roll across the
region... but should decrease again outside of rain areas.

* Impacts... drivers are encouraged to slow down and allow extra
time to reach destinations.

Precautionary/preparedness actions...

A dense fog advisory means visibilities will frequently be
reduced to less than one quarter mile. If driving... slow down...
use your headlights... and leave plenty of distance ahead of you.